Time;durP1;ratioP1;P1;durP2;ratioP2;P2;SDS_P1;SDS_P2;PMS_P1;PMS_P2;Temp;Humidity;BMP_temperature;BMP_pressure;BME280_temperature;BME280_humidity;BME280_pressure;Samples;Min_cycle;Max_cycle;Signal;HPM_P1;HPM_P2
2023/12/29 00:02:24;;;;;;;1.10;1.10;;;;;;;-5.41;92.35;98483.03;4780987;30;20055;-82
2023/12/29 00:04:51;;;;;;;1.00;1.00;;;;;;;-5.52;92.19;98470.13;4767323;30;20099;-83
2023/12/29 00:07:19;;;;;;;1.17;1.17;;;;;;;-5.51;92.29;98471.81;4767140;30;20082;-81
2023/12/29 00:09:48;;;;;;;0.95;0.95;;;;;;;-5.43;92.49;98492.06;4767490;30;20447;-82
2023/12/29 00:12:16;;;;;;;0.73;0.73;;;;;;;-5.48;92.52;98466.22;4797986;29;20150;-82
2023/12/29 00:14:43;;;;;;;1.00;1.00;;;;;;;-5.47;92.45;98463.47;4803064;29;20086;-83
2023/12/29 00:17:11;;;;;;;0.95;0.95;;;;;;;-5.50;92.90;98458.47;4802963;29;20054;-83
2023/12/29 00:19:38;;;;;;;1.10;1.10;;;;;;;-5.42;92.60;98470.84;4805077;29;20055;-83
2023/12/29 00:22:06;;;;;;;1.00;1.00;;;;;;;-5.41;92.55;98453.28;4790174;29;20415;-82
2023/12/29 00:24:36;;;;;;;1.00;1.00;;;;;;;-5.45;92.24;98447.50;4790037;29;20138;-82
2023/12/29 00:27:04;;;;;;;0.95;0.95;;;;;;;-5.50;92.48;98442.69;4757899;30;20146;-82
2023/12/29 00:29:32;;;;;;;0.82;0.82;;;;;;;-5.55;92.51;98423.13;4788512;29;20055;-82
2023/12/29 00:32:02;;;;;;;1.10;1.10;;;;;;;-5.34;92.36;98434.09;4787506;30;20087;-82
2023/12/29 00:34:31;;;;;;;1.00;1.00;;;;;;;-5.36;92.06;98422.91;4788700;29;20086;-82
2023/12/29 00:37:01;;;;;;;1.17;1.15;;;;;;;-5.42;92.16;98417.44;4788673;29;20150;-82
2023/12/29 00:39:31;;;;;;;1.08;1.08;;;;;;;-5.43;92.24;98423.69;4787012;30;20059;-82
2023/12/29 00:41:59;;;;;;;1.10;1.10;;;;;;;-5.50;92.38;98410.34;4786814;30;20055;-82
2023/12/29 00:44:31;;;;;;;1.08;1.08;;;;;;;-5.63;92.27;98387.09;4787987;29;20073;-82
2023/12/29 00:47:09;;;;;;;0.93;0.93;;;;;;;-5.46;92.49;98406.41;4788117;29;20054;-82
2023/12/29 00:49:40;;;;;;;1.10;1.10;;;;;;;-5.48;92.64;98400.47;4787073;30;20430;-82
2023/12/29 00:52:07;;;;;;;0.70;0.70;;;;;;;-5.48;92.69;98400.47;4786723;30;20572;-82
2023/12/29 00:54:35;;;;;;;0.80;0.80;;;;;;;-5.45;92.38;98403.63;4787998;30;20420;-82
2023/12/29 00:57:02;;;;;;;1.27;1.20;;;;;;;-5.46;92.54;98396.72;4787024;30;20051;-81
2023/12/29 00:59:33;;;;;;;0.90;0.90;;;;;;;-5.50;92.58;98392.75;4788001;30;20063;-81
2023/12/29 01:02:01;;;;;;;0.70;0.70;;;;;;;-5.62;92.65;98366.88;4801467;29;20537;-82
2023/12/29 01:04:28;;;;;;;0.80;0.80;;;;;;;-5.57;92.70;98370.72;4787572;30;20063;-81
2023/12/29 01:06:56;;;;;;;1.00;1.00;;;;;;;-5.66;92.85;98375.09;4791511;29;20055;-82
2023/12/29 01:09:23;;;;;;;1.00;1.00;;;;;;;-5.68;93.13;98358.66;4805455;29;20154;-82
2023/12/29 01:11:50;;;;;;;0.90;0.90;;;;;;;-5.74;93.16;98356.66;4805943;29;20051;-82
2023/12/29 01:14:18;;;;;;;0.93;0.93;;;;;;;-5.84;93.44;98361.19;4790011;29;20419;-82
2023/12/29 01:16:46;;;;;;;0.90;0.90;;;;;;;-5.82;93.64;98354.00;4804885;29;20062;-82
2023/12/29 01:19:14;;;;;;;0.90;0.90;;;;;;;-5.85;93.89;98353.47;4805332;29;20061;-82
2023/12/29 01:21:44;;;;;;;0.90;0.90;;;;;;;-5.85;93.89;98335.06;4790650;29;20062;-82
2023/12/29 01:24:11;;;;;;;0.80;0.80;;;;;;;-5.89;93.87;98332.75;4786031;30;20064;-82
2023/12/29 01:26:42;;;;;;;1.00;1.00;;;;;;;-5.86;93.78;98321.09;4771270;30;20055;-83
2023/12/29 01:29:09;;;;;;;0.95;0.95;;;;;;;-5.84;94.14;98318.34;4801999;29;20051;-82
2023/12/29 01:31:37;;;;;;;0.90;0.90;;;;;;;-5.71;93.89;98324.78;4786287;29;20675;-82
2023/12/29 01:34:07;;;;;;;1.05;1.05;;;;;;;-5.80;93.91;98288.94;4787287;29;20142;-82
2023/12/29 01:36:35;;;;;;;0.88;0.88;;;;;;;-5.67;94.02;98313.00;4787175;29;20108;-82
2023/12/29 01:39:02;;;;;;;1.10;1.10;;;;;;;-5.66;94.03;98306.72;4787412;30;20112;-81
2023/12/29 01:41:30;;;;;;;0.80;0.80;;;;;;;-5.69;93.73;98286.03;4800940;29;20138;-82
2023/12/29 01:43:57;;;;;;;1.00;1.00;;;;;;;-5.57;93.90;98294.47;4785789;30;20078;-82
2023/12/29 01:46:35;;;;;;;1.30;1.20;;;;;;;-5.55;94.08;98287.22;4785697;30;20051;-82
2023/12/29 01:49:02;;;;;;;1.00;1.00;;;;;;;-5.66;93.90;98266.47;4787175;30;20101;-82
2023/12/29 01:51:33;;;;;;;0.80;0.80;;;;;;;-5.62;94.07;98269.59;4786791;29;20151;-81
2023/12/29 01:54:00;;;;;;;0.90;0.90;;;;;;;-5.66;94.01;98248.91;4786835;29;20112;-81
2023/12/29 01:56:28;;;;;;;0.85;0.85;;;;;;;-5.52;93.99;98265.88;4787131;30;20138;-83
2023/12/29 01:58:55;;;;;;;0.90;0.90;;;;;;;-5.58;94.07;98255.16;4786260;30;20047;-82
2023/12/29 02:01:36;;;;;;;1.00;1.00;;;;;;;-5.61;94.10;98229.22;4785712;30;20146;-82
2023/12/29 02:04:03;;;;;;;0.90;0.90;;;;;;;-5.62;93.47;98227.53;4795948;29;20084;-82
2023/12/29 02:06:35;;;;;;;0.90;0.90;;;;;;;-5.71;93.66;98221.47;4803804;29;20053;-80
2023/12/29 02:09:05;;;;;;;0.80;0.80;;;;;;;-5.60;93.79;98229.03;4818499;29;20058;-82
2023/12/29 02:11:32;;;;;;;1.00;1.00;;;;;;;-5.61;93.58;98237.09;4818550;29;20062;-82
2023/12/29 02:14:02;;;;;;;0.75;0.75;;;;;;;-5.69;93.76;98216.88;4804865;29;20057;-83
2023/12/29 02:16:45;;;;;;;0.90;0.90;;;;;;;-5.63;93.57;98216.22;4818814;29;20051;-82
2023/12/29 02:19:40;;;;;;;0.90;0.90;;;;;;;-5.70;93.82;98202.91;4789321;29;20112;-82
2023/12/29 02:22:09;;;;;;;1.10;1.10;;;;;;;-5.58;93.69;98218.38;4788907;29;20059;-83
2023/12/29 02:24:39;;;;;;;0.70;0.70;;;;;;;-5.74;93.84;98198.13;4786651;30;20477;-83
2023/12/29 02:27:35;;;;;;;1.10;1.10;;;;;;;-5.58;93.71;98221.81;4787661;29;20051;-83
2023/12/29 02:30:09;;;;;;;1.10;1.10;;;;;;;-5.55;93.69;98228.56;4786452;30;20055;-83
2023/12/29 02:32:40;;;;;;;1.00;1.00;;;;;;;-5.49;93.58;98215.59;4786851;29;20384;-83
2023/12/29 02:35:13;;;;;;;1.10;1.10;;;;;;;-5.58;93.65;98197.31;4782269;30;20105;-83
2023/12/29 02:37:41;;;;;;;1.00;1.00;;;;;;;-5.50;93.73;98215.75;4768666;30;20062;-82
2023/12/29 02:40:11;;;;;;;0.90;0.90;;;;;;;-5.57;93.63;98189.28;4768519;30;20435;-82
2023/12/29 02:42:38;;;;;;;1.00;1.00;;;;;;;-5.48;93.33;98193.56;4767865;30;20059;-83
2023/12/29 02:45:06;;;;;;;1.30;1.20;;;;;;;-5.52;93.29;98176.47;4801831;29;20055;-82
2023/12/29 02:47:37;;;;;;;0.90;0.90;;;;;;;-5.52;93.00;98180.91;4772529;30;20048;-82
2023/12/29 02:50:07;;;;;;;0.90;0.90;;;;;;;-5.62;92.97;98157.41;4770851;30;20059;-82
2023/12/29 02:52:35;;;;;;;0.80;0.80;;;;;;;-5.55;93.10;98170.72;4769968;30;20431;-82
2023/12/29 02:55:03;;;;;;;0.90;0.90;;;;;;;-5.73;92.88;98142.75;4767149;30;20067;-82
2023/12/29 02:57:31;;;;;;;0.93;0.93;;;;;;;-5.59;92.96;98178.09;4768116;30;20052;-83
2023/12/29 02:59:58;;;;;;;1.02;1.02;;;;;;;-5.62;92.95;98164.44;4783491;29;20415;-83
2023/12/29 03:02:26;;;;;;;1.00;1.00;;;;;;;-5.54;92.99;98172.38;4817899;29;20049;-83
2023/12/29 03:04:53;;;;;;;0.70;0.70;;;;;;;-5.36;92.88;98173.03;4804099;29;20055;-83
2023/12/29 03:07:21;;;;;;;0.90;0.90;;;;;;;-5.38;92.96;98172.38;4817860;29;20050;-82
2023/12/29 03:09:48;;;;;;;0.93;0.93;;;;;;;-5.50;92.87;98157.91;4802781;29;20051;-82
2023/12/29 03:12:18;;;;;;;0.88;0.88;;;;;;;-5.49;92.71;98138.53;4803866;29;20536;-83
2023/12/29 03:14:47;;;;;;;0.80;0.80;;;;;;;-5.32;92.76;98145.41;4803827;29;20055;-83
2023/12/29 03:17:14;;;;;;;0.95;0.95;;;;;;;-5.42;92.80;98136.84;4802554;29;20050;-83
2023/12/29 03:19:41;;;;;;;0.90;0.90;;;;;;;-5.46;92.67;98133.75;4818105;29;20422;-83
2023/12/29 03:22:10;;;;;;;1.13;1.13;;;;;;;-5.23;92.81;98165.47;4785367;29;20055;-83
2023/12/29 03:24:40;;;;;;;1.27;1.20;;;;;;;-5.33;92.70;98138.50;4799213;29;20531;-83
2023/12/29 03:27:08;;;;;;;1.10;1.10;;;;;;;-5.17;92.66;98157.91;4784549;30;20505;-84
2023/12/29 03:29:36;;;;;;;0.85;0.85;;;;;;;-5.20;92.52;98153.78;4799862;29;20059;-82
2023/12/29 03:32:04;;;;;;;0.98;0.98;;;;;;;-5.26;92.19;98134.25;4785448;29;20437;-83
2023/12/29 03:34:34;;;;;;;1.17;1.17;;;;;;;-5.34;92.28;98136.88;4785484;29;20086;-81
2023/12/29 03:37:02;;;;;;;1.25;1.15;;;;;;;-5.30;92.84;98122.41;4799065;29;20104;-82
2023/12/29 03:39:35;;;;;;;0.85;0.85;;;;;;;-5.38;93.10;98104.00;4783957;29;20134;-82
2023/12/29 03:42:04;;;;;;;0.93;0.93;;;;;;;-5.57;93.18;98086.75;4784999;30;20153;-83
2023/12/29 03:44:34;;;;;;;0.90;0.90;;;;;;;-5.42;93.61;98113.19;4795562;29;20055;-83
2023/12/29 03:47:05;;;;;;;0.88;0.88;;;;;;;-5.47;93.97;98103.19;4766105;30;20060;-81
2023/12/29 03:49:34;;;;;;;1.13;1.13;;;;;;;-5.31;93.98;98104.97;4767249;30;20075;-83
2023/12/29 03:52:04;;;;;;;0.82;0.82;;;;;;;-5.43;93.65;98080.00;4774355;30;20150;-82
2023/12/29 03:54:32;;;;;;;0.88;0.88;;;;;;;-5.41;94.00;98085.91;4780734;29;20063;-83
2023/12/29 03:56:59;;;;;;;1.10;1.10;;;;;;;-5.31;94.23;98083.94;4789011;29;20059;-83
2023/12/29 03:59:27;;;;;;;0.85;0.85;;;;;;;-5.30;94.29;98072.41;4802149;29;20054;-83
2023/12/29 04:01:57;;;;;;;0.77;0.77;;;;;;;-5.35;94.76;98069.47;4786594;29;20043;-83
2023/12/29 04:04:25;;;;;;;0.75;0.75;;;;;;;-5.36;94.95;98067.03;4784980;29;20051;-83
2023/12/29 04:06:53;;;;;;;0.90;0.90;;;;;;;-5.41;95.43;98061.44;4787708;30;20541;-83
2023/12/29 04:09:20;;;;;;;0.63;0.63;;;;;;;-5.39;95.78;98068.16;4801452;29;20536;-82
2023/12/29 04:11:48;;;;;;;0.73;0.73;;;;;;;-5.36;96.00;98059.94;4786767;30;20077;-84
2023/12/29 04:14:16;;;;;;;0.90;0.90;;;;;;;-5.35;96.05;98066.03;4787932;29;20534;-82
2023/12/29 04:16:44;;;;;;;0.90;0.90;;;;;;;-5.44;96.36;98070.47;4786084;30;20054;-84
2023/12/29 04:19:11;;;;;;;0.82;0.82;;;;;;;-5.36;96.80;98075.72;4788176;29;20051;-86
2023/12/29 04:21:42;;;;;;;0.70;0.70;;;;;;;-5.46;97.00;98041.72;4451445;29;10000160;-88
2023/12/29 04:24:15;;;;;;;0.90;0.90;;;;;;;-5.34;97.37;98057.97;4782890;29;20151;-85
2023/12/29 04:26:53;;;;;;;0.93;0.93;;;;;;;-5.41;97.51;98035.94;4796412;29;20063;-83
2023/12/29 04:29:20;;;;;;;1.02;1.02;;;;;;;-5.29;97.62;98045.16;4782513;30;20130;-83
2023/12/29 04:31:48;;;;;;;0.60;0.60;;;;;;;-5.33;97.88;98032.50;4783523;29;20047;-83
2023/12/29 04:34:16;;;;;;;0.90;0.90;;;;;;;-5.53;97.88;98016.25;4785533;29;20066;-80
2023/12/29 04:36:47;;;;;;;0.85;0.85;;;;;;;-5.43;98.24;98022.16;4782237;30;20354;-81
2023/12/29 04:39:16;;;;;;;0.90;0.90;;;;;;;-5.52;98.44;98002.94;4798074;29;20043;-82
2023/12/29 04:41:48;;;;;;;1.05;1.05;;;;;;;-5.54;98.46;97985.69;4764747;30;20138;-82
2023/12/29 04:44:16;;;;;;;0.82;0.82;;;;;;;-5.49;98.78;97999.97;4784366;29;20072;-80
2023/12/29 04:46:44;;;;;;;0.93;0.93;;;;;;;-5.44;98.83;98010.00;4782134;30;20507;-81
2023/12/29 04:49:14;;;;;;;0.80;0.80;;;;;;;-5.53;99.12;97977.63;4784154;29;20070;-82
2023/12/29 04:51:41;;;;;;;0.90;0.90;;;;;;;-5.43;99.29;97987.16;4777591;30;20066;-81
2023/12/29 04:54:09;;;;;;;1.00;1.00;;;;;;;-5.36;99.25;97996.81;4784029;29;20511;-82
2023/12/29 04:56:40;;;;;;;1.02;1.02;;;;;;;-5.37;99.25;97995.16;4796802;29;20414;-80
2023/12/29 04:59:07;;;;;;;1.00;1.00;;;;;;;-5.45;99.35;97974.97;4785477;29;20070;-82
2023/12/29 05:01:35;;;;;;;1.00;1.00;;;;;;;-5.36;99.26;97988.13;4792537;29;20052;-81
2023/12/29 05:04:05;;;;;;;1.27;1.17;;;;;;;-5.36;99.59;97977.59;4784213;30;20062;-80
2023/12/29 05:06:36;;;;;;;0.90;0.90;;;;;;;-5.44;99.57;97978.44;4776750;30;20044;-82
2023/12/29 05:09:03;;;;;;;0.90;0.90;;;;;;;-5.46;99.77;97980.41;4787605;30;20051;-80
2023/12/29 05:11:31;;;;;;;1.00;1.00;;;;;;;-5.38;99.92;97979.56;4787209;29;20066;-81
2023/12/29 05:14:00;;;;;;;0.82;0.82;;;;;;;-5.35;100.00;97964.25;4787293;29;20075;-80
2023/12/29 05:16:27;;;;;;;0.95;0.95;;;;;;;-5.32;100.00;97977.06;4787220;29;20055;-81
2023/12/29 05:18:55;;;;;;;1.10;1.10;;;;;;;-5.34;100.00;97973.81;4787783;29;20059;-81
2023/12/29 05:21:24;;;;;;;1.02;1.02;;;;;;;-5.44;100.00;97946.88;4788816;29;20507;-81
2023/12/29 05:23:51;;;;;;;1.10;1.10;;;;;;;-5.40;100.00;97952.63;4769465;30;20693;-81
2023/12/29 05:26:24;;;;;;;1.00;1.00;;;;;;;-5.40;100.00;97958.69;4782557;30;20058;-81
2023/12/29 05:28:52;;;;;;;0.93;0.93;;;;;;;-5.36;100.00;97948.66;4783242;30;20055;-82
2023/12/29 05:31:19;;;;;;;0.80;0.80;;;;;;;-5.38;100.00;97946.19;4769390;30;20086;-81
2023/12/29 05:33:50;;;;;;;0.80;0.80;;;;;;;-5.52;100.00;97925.84;4769439;30;20056;-81
2023/12/29 05:36:18;;;;;;;0.93;0.93;;;;;;;-5.38;100.00;97961.97;4769000;30;20060;-81
2023/12/29 05:38:48;;;;;;;1.00;1.00;;;;;;;-5.43;100.00;97940.63;4769411;30;20067;-81
2023/12/29 05:41:16;;;;;;;1.10;1.10;;;;;;;-5.35;100.00;97958.19;4769153;30;20056;-81
2023/12/29 05:43:46;;;;;;;0.90;0.90;;;;;;;-5.40;100.00;97961.31;4782518;30;20052;-81
2023/12/29 05:46:14;;;;;;;1.10;1.10;;;;;;;-5.28;100.00;97957.34;4786449;30;20112;-81
2023/12/29 05:48:42;;;;;;;0.80;0.80;;;;;;;-5.16;100.00;97959.63;4787274;29;20581;-81
2023/12/29 05:51:13;;;;;;;1.00;1.00;;;;;;;-5.21;100.00;97936.44;4786952;29;20087;-82
2023/12/29 05:53:40;;;;;;;0.90;0.90;;;;;;;-5.11;100.00;97946.78;4817245;29;20058;-82
2023/12/29 05:56:09;;;;;;;0.80;0.80;;;;;;;-5.23;100.00;97933.97;4804292;29;20124;-80
2023/12/29 05:58:43;;;;;;;1.00;1.00;;;;;;;-5.21;100.00;97931.19;4818562;29;20059;-81
2023/12/29 06:01:11;;;;;;;1.10;1.10;;;;;;;-5.23;100.00;97928.72;4803399;29;20059;-79
2023/12/29 06:03:38;;;;;;;0.90;0.90;;;;;;;-5.18;100.00;97932.66;4804846;29;20058;-81
2023/12/29 06:06:06;;;;;;;0.90;0.90;;;;;;;-5.26;100.00;97926.44;4803662;29;20051;-81
2023/12/29 06:08:33;;;;;;;0.98;0.98;;;;;;;-5.17;100.00;97953.53;4786829;29;20047;-82
2023/12/29 06:11:01;;;;;;;1.00;1.00;;;;;;;-5.12;100.00;97937.22;4785584;29;20055;-81
2023/12/29 06:13:29;;;;;;;0.82;0.82;;;;;;;-5.01;100.00;97937.69;4783640;29;20053;-82
2023/12/29 06:15:57;;;;;;;1.00;1.00;;;;;;;-5.09;100.00;97919.31;4783928;30;20144;-82
2023/12/29 06:18:25;;;;;;;0.90;0.90;;;;;;;-4.99;100.00;97934.84;4785217;29;20591;-82
2023/12/29 06:20:54;;;;;;;0.80;0.80;;;;;;;-4.92;100.00;97927.91;4785678;29;20051;-81
2023/12/29 06:23:21;;;;;;;1.00;1.00;;;;;;;-4.89;100.00;97929.38;4785736;29;20519;-81
2023/12/29 06:25:48;;;;;;;0.88;0.88;;;;;;;-5.06;100.00;97910.25;4784839;30;20872;-81
2023/12/29 06:28:16;;;;;;;0.93;0.93;;;;;;;-4.91;100.00;97926.94;4785983;29;20553;-81
2023/12/29 06:30:43;;;;;;;0.80;0.80;;;;;;;-4.88;100.00;97918.69;4784166;29;20471;-81
2023/12/29 06:33:11;;;;;;;1.17;1.17;;;;;;;-5.00;100.00;97893.75;4785719;30;20523;-81
2023/12/29 06:35:38;;;;;;;0.80;0.80;;;;;;;-4.99;100.00;97898.03;4785925;29;20049;-82
2023/12/29 06:38:06;;;;;;;0.90;0.90;;;;;;;-4.84;100.00;97912.09;4785595;29;20102;-80
2023/12/29 06:40:33;;;;;;;1.10;1.10;;;;;;;-4.78;100.00;97915.84;4783895;30;20423;-81
2023/12/29 06:43:01;;;;;;;1.10;1.10;;;;;;;-4.85;100.00;97889.41;4781583;30;20079;-82
2023/12/29 06:45:28;;;;;;;1.05;1.05;;;;;;;-4.88;100.00;97902.91;4794791;29;20074;-84
2023/12/29 06:47:56;;;;;;;1.10;1.10;;;;;;;-4.77;100.00;97904.31;4780393;30;20087;-81
2023/12/29 06:50:27;;;;;;;0.85;0.85;;;;;;;-4.86;100.00;97908.81;4781728;30;20074;-82
2023/12/29 06:52:56;;;;;;;1.00;1.00;;;;;;;-4.93;100.00;97886.00;4775452;29;20055;-82
2023/12/29 06:55:25;;;;;;;0.93;0.93;;;;;;;-4.80;100.00;97887.06;4764837;30;20125;-81
2023/12/29 06:57:53;;;;;;;1.10;1.10;;;;;;;-4.74;100.00;97876.81;4779980;30;20066;-82
2023/12/29 07:00:20;;;;;;;1.00;1.00;;;;;;;-4.53;100.00;97897.25;4778043;29;20055;-82
2023/12/29 07:02:48;;;;;;;1.02;1.02;;;;;;;-4.47;100.00;97904.47;4785748;29;20052;-82
2023/12/29 07:05:19;;;;;;;1.08;1.08;;;;;;;-4.49;100.00;97888.81;4799388;29;20142;-82
2023/12/29 07:07:46;;;;;;;0.80;0.80;;;;;;;-4.57;100.00;97886.25;4784605;29;20137;-81
2023/12/29 07:10:14;;;;;;;1.02;1.02;;;;;;;-4.48;100.00;97901.03;4795988;29;20142;-82
2023/12/29 07:12:46;;;;;;;1.13;1.13;;;;;;;-4.51;100.00;97892.63;4774487;30;20434;-82
2023/12/29 07:15:14;;;;;;;1.00;1.00;;;;;;;-4.49;100.00;97894.09;4793522;29;20166;-81
2023/12/29 07:17:41;;;;;;;1.10;1.10;;;;;;;-4.43;100.00;97897.81;4781793;30;20073;-83
2023/12/29 07:20:13;;;;;;;1.00;1.00;;;;;;;-4.59;100.00;97885.59;4781557;29;20054;-82
2023/12/29 07:22:40;;;;;;;0.98;0.98;;;;;;;-4.54;100.00;97890.34;4783142;29;20073;-83
2023/12/29 07:25:09;;;;;;;1.17;1.17;;;;;;;-4.59;100.00;97878.53;4781103;29;20079;-80
2023/12/29 07:27:37;;;;;;;0.90;0.90;;;;;;;-4.45;100.00;97874.31;4783239;30;20540;-80
2023/12/29 07:30:04;;;;;;;1.05;1.05;;;;;;;-4.33;100.00;97893.13;4777563;30;20595;-81
2023/12/29 07:32:32;;;;;;;0.80;0.80;;;;;;;-4.31;100.00;97893.78;4770526;30;20060;-81
2023/12/29 07:34:59;;;;;;;1.00;1.00;;;;;;;-4.30;100.00;97889.34;4773924;30;20078;-81
2023/12/29 07:37:29;;;;;;;0.80;0.80;;;;;;;-4.32;100.00;97893.97;4780705;30;20056;-83
2023/12/29 07:39:59;;;;;;;0.95;0.95;;;;;;;-4.31;100.00;97895.63;4798732;29;20066;-83
2023/12/29 07:42:26;;;;;;;0.95;0.95;;;;;;;-4.28;100.00;97885.56;4781927;29;20070;-81
2023/12/29 07:45:00;;;;;;;1.02;1.02;;;;;;;-4.22;100.00;97876.94;4779671;30;20051;-80
2023/12/29 07:47:30;;;;;;;1.33;1.23;;;;;;;-4.17;100.00;97879.03;4781375;30;20419;-79
2023/12/29 07:49:58;;;;;;;0.90;0.90;;;;;;;-4.10;100.00;97874.69;4776565;29;20084;-82
2023/12/29 07:52:26;;;;;;;1.00;1.00;;;;;;;-4.25;100.00;97863.31;4805203;29;20141;-81
2023/12/29 07:54:53;;;;;;;1.02;1.02;;;;;;;-4.06;100.00;97877.78;4787300;29;20063;-82
2023/12/29 07:57:21;;;;;;;1.10;1.10;;;;;;;-3.93;100.00;97877.97;4774074;30;20051;-81
2023/12/29 07:59:48;;;;;;;1.05;1.05;;;;;;;-3.96;100.00;97851.97;4781221;29;20121;-80
2023/12/29 08:02:16;;;;;;;1.02;1.02;;;;;;;-3.88;99.87;97849.25;4780247;29;20043;-80
2023/12/29 08:04:46;;;;;;;1.25;1.20;;;;;;;-3.78;99.46;97875.34;4775226;30;20051;-81
2023/12/29 08:07:14;;;;;;;1.10;1.10;;;;;;;-3.77;99.37;97869.09;4783853;30;20066;-81
2023/12/29 08:09:41;;;;;;;1.10;1.10;;;;;;;-3.79;99.37;97874.56;4784107;30;20104;-81
2023/12/29 08:12:11;;;;;;;1.00;1.00;;;;;;;-3.80;99.75;97866.81;4782807;29;20082;-81
2023/12/29 08:14:41;;;;;;;1.00;1.00;;;;;;;-3.75;99.94;97867.94;4779160;30;20051;-81
2023/12/29 08:17:09;;;;;;;1.23;1.17;;;;;;;-3.62;99.87;97855.91;4781709;29;20052;-80
2023/12/29 08:19:36;;;;;;;1.00;1.00;;;;;;;-3.52;99.82;97854.66;4783226;29;20142;-80
2023/12/29 08:22:04;;;;;;;1.10;1.10;;;;;;;-3.57;99.53;97856.16;4792767;29;20146;-81
2023/12/29 08:24:31;;;;;;;1.10;1.10;;;;;;;-3.69;99.52;97860.28;4781528;29;20047;-81
2023/12/29 08:26:59;;;;;;;0.82;0.82;;;;;;;-3.71;99.90;97853.34;4780770;30;20062;-81
2023/12/29 08:29:26;;;;;;;1.10;1.10;;;;;;;-3.66;100.00;97850.19;4783965;29;20095;-81
2023/12/29 08:31:54;;;;;;;0.95;0.95;;;;;;;-3.60;100.00;97846.00;4784052;29;20059;-81
2023/12/29 08:34:22;;;;;;;0.98;0.98;;;;;;;-3.61;100.00;97847.81;4783811;29;20267;-81
2023/12/29 08:36:52;;;;;;;1.38;1.27;;;;;;;-3.67;100.00;97835.38;4784275;30;20443;-82
2023/12/29 08:39:19;;;;;;;1.10;1.10;;;;;;;-3.56;100.00;97842.81;4784234;29;20055;-81
2023/12/29 08:41:47;;;;;;;1.15;1.15;;;;;;;-3.50;100.00;97839.44;4787660;29;20090;-80
2023/12/29 08:44:18;;;;;;;1.05;1.05;;;;;;;-3.46;100.00;97847.81;4787709;29;20058;-81
2023/12/29 08:46:50;;;;;;;1.40;1.30;;;;;;;-3.49;100.00;97840.28;4787401;29;20134;-81
2023/12/29 08:49:18;;;;;;;1.20;1.17;;;;;;;-3.51;100.00;97851.00;4770422;30;20458;-80
2023/12/29 08:51:45;;;;;;;1.13;1.13;;;;;;;-3.62;100.00;97838.28;4789691;29;20066;-81
2023/12/29 08:54:14;;;;;;;1.02;1.02;;;;;;;-3.46;100.00;97834.63;4804842;29;20063;-80
2023/12/29 08:56:41;;;;;;;1.23;1.20;;;;;;;-3.40;100.00;97831.25;4805345;29;20057;-82
2023/12/29 08:59:09;;;;;;;1.00;1.00;;;;;;;-3.42;100.00;97827.16;4803488;29;20059;-81
2023/12/29 09:01:36;;;;;;;1.20;1.13;;;;;;;-3.40;100.00;97820.69;4819006;29;20090;-81
2023/12/29 09:04:04;;;;;;;0.90;0.90;;;;;;;-3.28;100.00;97824.50;4804972;29;20058;-81
2023/12/29 09:06:34;;;;;;;1.35;1.25;;;;;;;-3.35;100.00;97801.66;4803707;29;20578;-81
2023/12/29 09:09:02;;;;;;;1.00;1.00;;;;;;;-3.24;100.00;97809.13;4787460;29;20063;-81
2023/12/29 09:11:29;;;;;;;1.13;1.13;;;;;;;-3.14;100.00;97816.72;4787362;29;20071;-82
2023/12/29 09:13:56;;;;;;;1.10;1.10;;;;;;;-3.09;100.00;97817.81;4787320;29;20064;-82
2023/12/29 09:16:24;;;;;;;1.10;1.10;;;;;;;-3.06;100.00;97812.16;4787701;29;20051;-81
2023/12/29 09:18:51;;;;;;;1.02;1.02;;;;;;;-3.04;100.00;97814.59;4787057;29;20055;-83
2023/12/29 09:21:26;;;;;;;0.98;0.98;;;;;;;-3.12;100.00;97807.59;4785616;29;20138;-83
2023/12/29 09:23:53;;;;;;;;;;;;;;;-2.99;100.00;97816.69;4785458;30;20051;-82
2023/12/29 09:26:21;;;;;;;1.20;1.20;;;;;;;-2.95;100.00;97812.66;4785245;29;19929;-80
2023/12/29 09:28:49;;;;;;;1.23;1.20;;;;;;;-2.91;100.00;97809.47;4785160;30;20059;-82
2023/12/29 09:31:16;;;;;;;1.08;1.08;;;;;;;-2.85;100.00;97795.50;4778964;30;20075;-82
2023/12/29 09:33:44;;;;;;;1.30;1.20;;;;;;;-2.72;100.00;97797.44;4782589;30;20059;-82
2023/12/29 09:36:11;;;;;;;1.13;1.13;;;;;;;-2.65;100.00;97790.41;4786040;30;20051;-82
2023/12/29 09:38:39;;;;;;;1.10;1.10;;;;;;;-2.57;100.00;97786.81;4784291;30;20083;-82
2023/12/29 09:41:11;;;;;;;1.02;1.02;;;;;;;-2.48;100.00;97784.84;4786281;29;20052;-81
2023/12/29 09:43:39;;;;;;;1.40;1.30;;;;;;;-2.39;100.00;97775.78;4787373;29;20146;-81
2023/12/29 09:46:08;;;;;;;1.10;1.10;;;;;;;-2.30;100.00;97779.94;4799841;29;20066;-81
2023/12/29 09:48:37;;;;;;;1.08;1.08;;;;;;;-2.19;99.75;97792.59;4793139;29;20101;-81
2023/12/29 09:51:05;;;;;;;0.90;0.90;;;;;;;-2.19;99.46;97782.03;4795792;29;20077;-82
2023/12/29 09:53:36;;;;;;;0.98;0.98;;;;;;;-2.24;99.47;97783.63;4781339;30;20066;-83
2023/12/29 09:56:07;;;;;;;1.20;1.20;;;;;;;-2.31;99.74;97788.84;4786513;29;20114;-83
2023/12/29 09:58:39;;;;;;;1.30;1.20;;;;;;;-2.36;100.00;97780.69;4785131;30;20657;-83
2023/12/29 10:01:07;;;;;;;1.10;1.10;;;;;;;-2.45;100.00;97771.28;4778633;30;20064;-85
2023/12/29 10:03:34;;;;;;;1.00;1.00;;;;;;;-2.38;100.00;97777.44;4774897;30;20051;-83
2023/12/29 10:06:09;;;;;;;1.30;1.20;;;;;;;-2.33;100.00;97775.03;4786251;30;20058;-83
2023/12/29 10:08:38;;;;;;;1.10;1.10;;;;;;;-2.36;100.00;97783.31;4786219;29;20065;-84
2023/12/29 10:11:08;;;;;;;1.05;1.05;;;;;;;-2.33;100.00;97779.47;4786039;29;20056;-82
2023/12/29 10:13:36;;;;;;;0.90;0.90;;;;;;;-2.34;100.00;97770.75;4783799;30;20059;-83
2023/12/29 10:16:13;;;;;;;1.10;1.10;;;;;;;-2.33;100.00;97782.97;4768911;29;20051;-84
2023/12/29 10:19:21;;;;;;;1.00;1.00;;;;;;;-2.42;100.00;97770.88;4783568;29;20083;-82
2023/12/29 10:21:56;;;;;;;0.90;0.90;;;;;;;-2.36;100.00;97779.88;4766151;30;20059;-82
2023/12/29 10:24:24;;;;;;;1.00;1.00;;;;;;;-2.35;100.00;97769.13;4775470;30;20051;-81
2023/12/29 10:26:53;;;;;;;1.10;1.10;;;;;;;-2.30;100.00;97777.28;4767694;30;20153;-80
2023/12/29 10:29:21;;;;;;;1.40;1.30;;;;;;;-2.24;100.00;97765.94;4782692;30;20055;-80
2023/12/29 10:31:48;;;;;;;1.13;1.13;;;;;;;-2.24;100.00;97758.00;4792141;29;20057;-83
2023/12/29 10:34:29;;;;;;;1.08;1.08;;;;;;;-2.13;100.00;97758.47;4775856;30;20525;-81
2023/12/29 10:37:19;;;;;;;1.20;1.20;;;;;;;-2.19;100.00;97760.06;4783394;30;20063;-82
2023/12/29 10:39:55;;;;;;;1.10;1.10;;;;;;;-2.26;100.00;97740.69;4773429;30;20087;-83
2023/12/29 10:42:23;;;;;;;0.95;0.95;;;;;;;-2.21;100.00;97762.91;4781353;30;20055;-80
2023/12/29 10:45:06;;;;;;;1.02;1.02;;;;;;;-2.15;100.00;97752.56;4784465;29;20078;-82
2023/12/29 10:47:35;;;;;;;0.88;0.88;;;;;;;-2.10;100.00;97752.78;4801882;29;20051;-82
2023/12/29 10:50:03;;;;;;;1.20;1.20;;;;;;;-2.12;100.00;97746.91;4800568;29;20107;-81
2023/12/29 10:52:32;;;;;;;1.00;1.00;;;;;;;-2.07;100.00;97752.44;4802031;29;20442;-82
2023/12/29 10:55:11;;;;;;;0.80;0.80;;;;;;;-2.00;100.00;97758.53;4814299;29;20131;-82
2023/12/29 10:57:39;;;;;;;1.13;1.13;;;;;;;-1.96;100.00;97752.69;4801345;29;20051;-81
2023/12/29 11:00:07;;;;;;;1.00;1.00;;;;;;;-1.94;100.00;97735.81;4792708;29;20107;-82
2023/12/29 11:02:35;;;;;;;1.00;1.00;;;;;;;-2.01;100.00;97738.41;4785069;29;20150;-82
2023/12/29 11:05:04;;;;;;;1.10;1.10;;;;;;;-1.92;100.00;97739.91;4783676;29;20404;-82
2023/12/29 11:07:43;;;;;;;1.30;1.20;;;;;;;-1.89;100.00;97747.44;4784905;29;20124;-81
2023/12/29 11:10:11;;;;;;;1.10;1.10;;;;;;;-1.86;100.00;97747.03;4784544;29;20051;-82
2023/12/29 11:12:39;;;;;;;1.08;1.08;;;;;;;-1.79;100.00;97749.72;4785203;29;20124;-82
2023/12/29 11:15:08;;;;;;;1.30;1.20;;;;;;;-1.77;100.00;97750.34;4785119;29;20479;-81
2023/12/29 11:17:35;;;;;;;0.93;0.93;;;;;;;-1.72;100.00;97739.16;4785157;29;20055;-82
2023/12/29 11:20:05;;;;;;;0.90;0.90;;;;;;;-1.69;100.00;97754.66;4787227;29;20727;-81
2023/12/29 11:22:33;;;;;;;1.05;1.05;;;;;;;-1.68;100.00;97748.34;4816536;29;20047;-82
2023/12/29 11:25:01;;;;;;;0.93;0.93;;;;;;;-1.67;100.00;97750.81;4801429;29;20427;-82
2023/12/29 11:27:31;;;;;;;1.15;1.15;;;;;;;-1.62;100.00;97756.31;4788632;29;20526;-81
2023/12/29 11:30:02;;;;;;;1.00;1.00;;;;;;;-1.59;100.00;97757.75;4795322;29;20104;-81
2023/12/29 11:32:47;;;;;;;1.23;1.20;;;;;;;-1.53;100.00;97764.91;4790469;29;20056;-81
2023/12/29 11:35:18;;;;;;;1.10;1.10;;;;;;;-1.55;100.00;97762.44;4774522;30;20047;-81
2023/12/29 11:38:05;;;;;;;1.30;1.20;;;;;;;-1.55;100.00;97767.72;4795600;29;20051;-81
2023/12/29 11:40:39;;;;;;;1.13;1.13;;;;;;;-1.59;100.00;97763.03;4793855;29;20061;-83